createdAt,value
2022-07-29T00:00:44.236Z,997.29
2022-07-29T00:01:44.332Z,997.25
2022-07-29T00:02:44.298Z,997.30
2022-07-29T00:03:44.294Z,997.28
2022-07-29T00:04:44.267Z,997.25
2022-07-29T00:05:44.199Z,997.20
2022-07-29T00:06:44.167Z,997.25
2022-07-29T00:07:44.177Z,997.22
2022-07-29T00:08:44.148Z,997.26
2022-07-29T00:09:51.047Z,997.22
2022-07-29T00:10:45.120Z,997.27
2022-07-29T00:11:44.196Z,997.28
2022-07-29T00:12:44.117Z,997.27
2022-07-29T00:13:47.739Z,997.29
2022-07-29T00:14:45.098Z,997.32
2022-07-29T00:15:44.068Z,997.28
2022-07-29T00:16:44.166Z,997.33
2022-07-29T00:17:44.057Z,997.39
2022-07-29T00:18:44.058Z,997.43
2022-07-29T00:19:45.675Z,997.42
2022-07-29T00:20:44.008Z,997.50
2022-07-29T00:21:44.016Z,997.51
2022-07-29T00:22:43.989Z,997.50
2022-07-29T00:23:44.036Z,997.40
2022-07-29T00:24:44.223Z,997.46
2022-07-29T00:25:43.973Z,997.37
2022-07-29T00:26:44.176Z,997.37
2022-07-29T00:27:44.054Z,997.36
2022-07-29T00:28:43.953Z,997.37
2022-07-29T00:29:43.964Z,997.41
2022-07-29T00:30:43.902Z,997.39
2022-07-29T00:31:43.949Z,997.32
2022-07-29T00:32:43.881Z,997.39
2022-07-29T00:33:43.869Z,997.42
2022-07-29T00:34:43.850Z,997.41
2022-07-29T00:35:43.882Z,997.42
2022-07-29T00:36:43.867Z,997.41
2022-07-29T00:37:43.828Z,997.48
2022-07-29T00:38:43.811Z,997.50
2022-07-29T00:39:43.805Z,997.56
2022-07-29T00:40:44.121Z,997.52
2022-07-29T00:41:43.834Z,997.55
2022-07-29T00:42:43.789Z,997.60
2022-07-29T00:43:43.760Z,997.63
2022-07-29T00:44:43.751Z,997.69
2022-07-29T00:45:43.747Z,997.67
2022-07-29T00:46:43.780Z,997.65
2022-07-29T00:47:43.742Z,997.66
2022-07-29T00:48:43.766Z,997.70
2022-07-29T00:49:43.694Z,997.72
2022-07-29T00:50:43.681Z,997.69
2022-07-29T00:51:43.685Z,997.71
2022-07-29T00:52:43.681Z,997.74
2022-07-29T00:53:43.696Z,997.78
2022-07-29T00:54:44.415Z,997.80
2022-07-29T00:55:43.643Z,997.82
2022-07-29T00:56:43.614Z,997.73
2022-07-29T00:57:43.601Z,997.61
2022-07-29T00:58:43.621Z,997.55
2022-07-29T00:59:43.883Z,997.61
2022-07-29T01:00:43.683Z,997.53
2022-07-29T01:01:43.590Z,997.50
2022-07-29T01:02:43.583Z,997.47
2022-07-29T01:03:43.631Z,997.54
2022-07-29T01:04:43.593Z,997.50
2022-07-29T01:05:48.546Z,997.55
2022-07-29T01:06:44.495Z,997.58
2022-07-29T01:07:43.485Z,997.58
2022-07-29T01:08:43.485Z,997.59
2022-07-29T01:09:46.272Z,997.65
2022-07-29T01:10:43.478Z,997.64
2022-07-29T01:11:43.447Z,997.73
2022-07-29T01:12:43.434Z,997.79
2022-07-29T01:13:43.485Z,997.91
2022-07-29T01:14:43.435Z,997.96
2022-07-29T01:15:49.291Z,997.87
2022-07-29T01:16:44.508Z,997.81
2022-07-29T01:17:45.812Z,997.85
2022-07-29T01:18:44.418Z,997.83
2022-07-29T01:19:43.357Z,997.81
2022-07-29T01:20:43.340Z,997.83
2022-07-29T01:21:43.327Z,997.91
2022-07-29T01:22:43.338Z,997.91
2022-07-29T01:23:43.339Z,997.86
2022-07-29T01:24:43.296Z,997.87
2022-07-29T01:25:43.350Z,997.84
2022-07-29T01:26:44.556Z,997.78
2022-07-29T01:27:43.297Z,997.81
2022-07-29T01:28:43.276Z,997.84
2022-07-29T01:29:43.238Z,997.72
2022-07-29T01:30:43.228Z,997.73
2022-07-29T01:31:55.240Z,997.68
2022-07-29T01:32:44.219Z,997.67
2022-07-29T01:33:43.198Z,997.59
2022-07-29T01:34:43.227Z,997.55
2022-07-29T01:35:43.167Z,997.54
2022-07-29T01:36:43.166Z,997.49
2022-07-29T01:37:43.158Z,997.48
2022-07-29T01:38:43.128Z,997.41
2022-07-29T01:39:43.130Z,997.40
2022-07-29T01:40:43.139Z,997.49
2022-07-29T01:41:43.108Z,997.42
2022-07-29T01:42:43.094Z,997.41
2022-07-29T01:43:43.257Z,997.39
2022-07-29T01:44:43.075Z,997.40
2022-07-29T01:45:43.096Z,997.41
2022-07-29T01:46:43.084Z,997.46
2022-07-29T01:47:43.199Z,997.44
2022-07-29T01:48:43.030Z,997.42
2022-07-29T01:49:43.016Z,997.40
2022-07-29T01:50:42.999Z,997.41
2022-07-29T01:51:43.018Z,997.39
2022-07-29T01:52:42.977Z,997.38
2022-07-29T01:53:42.971Z,997.29
2022-07-29T01:54:42.960Z,997.30
2022-07-29T01:55:42.954Z,997.27
2022-07-29T01:56:42.938Z,997.19
2022-07-29T01:57:42.958Z,997.25
2022-07-29T01:58:42.907Z,997.18
2022-07-29T01:59:42.898Z,997.18
2022-07-29T02:00:43.807Z,997.20
2022-07-29T02:01:42.919Z,997.11
2022-07-29T02:02:42.867Z,997.14
2022-07-29T02:03:42.886Z,997.18
2022-07-29T02:04:42.888Z,997.15
2022-07-29T02:05:42.859Z,997.18
2022-07-29T02:06:42.820Z,997.20
2022-07-29T02:07:42.808Z,997.19
2022-07-29T02:08:42.801Z,997.20
2022-07-29T02:09:42.837Z,997.13
2022-07-29T02:10:42.780Z,997.17
2022-07-29T02:11:42.760Z,997.13
2022-07-29T02:12:42.760Z,997.17
2022-07-29T02:13:43.741Z,997.17
2022-07-29T02:14:42.730Z,997.16
2022-07-29T02:15:42.833Z,997.15
2022-07-29T02:16:42.701Z,997.16
2022-07-29T02:17:42.700Z,997.10
2022-07-29T02:18:42.683Z,997.13
2022-07-29T02:19:42.671Z,997.08
2022-07-29T02:20:42.683Z,997.12
2022-07-29T02:21:42.651Z,997.03
2022-07-29T02:22:42.641Z,997.00
2022-07-29T02:23:45.059Z,996.94
2022-07-29T02:24:43.612Z,996.97
2022-07-29T02:25:42.610Z,996.97
2022-07-29T02:26:42.608Z,996.96
2022-07-29T02:27:42.580Z,996.88
2022-07-29T02:28:42.571Z,996.88
2022-07-29T02:29:42.569Z,996.96
2022-07-29T02:30:42.543Z,996.87
2022-07-29T02:31:42.601Z,996.87
2022-07-29T02:32:42.546Z,996.83
2022-07-29T02:33:42.521Z,996.83
2022-07-29T02:34:42.506Z,996.82
2022-07-29T02:35:42.501Z,996.82
2022-07-29T02:36:42.486Z,996.80
2022-07-29T02:37:42.503Z,996.82
2022-07-29T02:38:42.461Z,996.79
2022-07-29T02:39:42.452Z,996.72
2022-07-29T02:40:42.432Z,996.80
2022-07-29T02:41:42.434Z,996.83
2022-07-29T02:42:42.411Z,996.78
2022-07-29T02:43:42.421Z,996.80
2022-07-29T02:44:42.408Z,996.80
2022-07-29T02:45:42.391Z,996.81
2022-07-29T02:46:42.402Z,996.82
2022-07-29T02:47:42.367Z,996.80
2022-07-29T02:48:42.370Z,996.80
2022-07-29T02:49:42.351Z,996.78
2022-07-29T02:50:42.321Z,996.73
2022-07-29T02:51:49.372Z,996.70
2022-07-29T02:52:44.985Z,996.69
2022-07-29T02:53:44.914Z,996.72
2022-07-29T02:54:42.307Z,996.67
2022-07-29T02:55:42.282Z,996.70
2022-07-29T02:56:42.253Z,996.71
2022-07-29T02:57:54.416Z,996.66
2022-07-29T02:58:43.230Z,996.69
2022-07-29T02:59:42.225Z,996.64
2022-07-29T03:00:42.269Z,996.62
2022-07-29T03:01:42.250Z,996.63
2022-07-29T03:02:42.199Z,996.60
2022-07-29T03:03:42.172Z,996.64
2022-07-29T03:04:42.182Z,996.72
2022-07-29T03:05:42.165Z,996.68
2022-07-29T03:06:42.165Z,996.77
2022-07-29T03:07:42.133Z,996.75
2022-07-29T03:08:42.125Z,996.80
2022-07-29T03:09:42.104Z,996.77
2022-07-29T03:10:42.095Z,996.79
2022-07-29T03:11:46.432Z,996.76
2022-07-29T03:12:43.122Z,996.76
2022-07-29T03:13:42.085Z,996.74
2022-07-29T03:14:42.065Z,996.73
2022-07-29T03:15:42.120Z,996.71
2022-07-29T03:16:42.081Z,996.77
2022-07-29T03:17:42.022Z,996.75
2022-07-29T03:18:42.023Z,996.73
2022-07-29T03:19:41.995Z,996.72
2022-07-29T03:20:41.983Z,996.77
2022-07-29T03:21:41.969Z,996.75
2022-07-29T03:22:41.955Z,996.79
2022-07-29T03:23:41.986Z,996.76
2022-07-29T03:24:41.936Z,996.81
2022-07-29T03:25:41.926Z,996.79
2022-07-29T03:26:41.915Z,996.82
2022-07-29T03:27:41.904Z,996.79
2022-07-29T03:28:41.895Z,996.79
2022-07-29T03:29:41.908Z,996.82
2022-07-29T03:30:44.606Z,996.82
2022-07-29T03:31:41.857Z,996.86
2022-07-29T03:32:41.854Z,996.84
2022-07-29T03:33:41.844Z,996.84
2022-07-29T03:34:41.817Z,996.89
2022-07-29T03:35:41.845Z,996.89
2022-07-29T03:36:41.807Z,996.89
2022-07-29T03:37:41.791Z,996.85
2022-07-29T03:38:41.774Z,996.93
2022-07-29T03:39:41.781Z,996.92
2022-07-29T03:40:41.757Z,996.93
2022-07-29T03:41:41.757Z,996.95
2022-07-29T03:42:41.739Z,996.95
2022-07-29T03:43:49.259Z,996.97
2022-07-29T03:44:42.721Z,996.95
2022-07-29T03:45:41.706Z,996.91
2022-07-29T03:46:41.741Z,996.94
2022-07-29T03:47:50.082Z,996.87
2022-07-29T03:48:42.684Z,996.89
2022-07-29T03:49:41.651Z,996.86
2022-07-29T03:50:41.637Z,996.87
2022-07-29T03:51:41.638Z,996.87
2022-07-29T03:52:41.628Z,996.87
2022-07-29T03:53:41.613Z,996.91
2022-07-29T03:54:41.598Z,996.90
2022-07-29T03:55:41.588Z,996.91
2022-07-29T03:56:41.585Z,996.87
2022-07-29T03:57:41.591Z,996.87
2022-07-29T03:58:41.558Z,996.90
2022-07-29T03:59:41.542Z,996.86
2022-07-29T04:00:41.538Z,996.87
2022-07-29T04:01:41.577Z,996.80
2022-07-29T04:02:41.499Z,996.85
2022-07-29T04:03:41.581Z,996.92
2022-07-29T04:04:41.481Z,996.83
2022-07-29T04:05:41.480Z,996.89
2022-07-29T04:06:41.461Z,996.89
2022-07-29T04:07:41.455Z,996.95
2022-07-29T04:08:41.439Z,996.93
2022-07-29T04:09:41.449Z,996.97
2022-07-29T04:10:41.411Z,996.99
2022-07-29T04:12:02.012Z,997.03
2022-07-29T04:12:42.387Z,997.04
2022-07-29T04:13:41.379Z,996.97
2022-07-29T04:14:41.372Z,996.98
2022-07-29T04:15:41.441Z,996.96
2022-07-29T04:16:41.344Z,996.91
2022-07-29T04:17:41.340Z,996.85
2022-07-29T04:18:41.320Z,996.85
2022-07-29T04:19:41.315Z,996.80
2022-07-29T04:20:41.309Z,996.80
2022-07-29T04:21:41.313Z,996.78
2022-07-29T04:22:41.281Z,996.80
2022-07-29T04:23:52.846Z,996.75
2022-07-29T04:24:44.459Z,996.80
2022-07-29T04:25:41.260Z,996.79
2022-07-29T04:26:41.239Z,996.78
2022-07-29T04:27:41.241Z,996.76
2022-07-29T04:28:41.211Z,996.74
2022-07-29T04:29:56.704Z,996.79
2022-07-29T04:30:42.238Z,996.79
2022-07-29T04:31:42.081Z,996.91
2022-07-29T04:32:41.161Z,996.85
2022-07-29T04:33:41.174Z,996.85
2022-07-29T04:34:41.152Z,996.67
2022-07-29T04:35:50.194Z,996.53
2022-07-29T04:36:42.121Z,996.43
2022-07-29T04:37:41.112Z,996.33
2022-07-29T04:38:41.101Z,996.26
2022-07-29T04:39:41.102Z,996.23
2022-07-29T04:40:41.081Z,996.31
2022-07-29T04:41:41.065Z,996.42
2022-07-29T04:42:46.427Z,996.52
2022-07-29T04:43:42.044Z,996.59
2022-07-29T04:44:43.136Z,996.62
2022-07-29T04:45:41.022Z,996.71
2022-07-29T04:46:41.078Z,996.72
2022-07-29T04:47:41.001Z,996.74
2022-07-29T04:48:41.045Z,996.64
2022-07-29T04:49:40.977Z,996.65
2022-07-29T04:50:40.991Z,996.61
2022-07-29T04:51:40.965Z,996.63
2022-07-29T04:52:40.946Z,996.65
2022-07-29T04:53:40.934Z,996.66
2022-07-29T04:54:40.922Z,996.71
2022-07-29T04:55:40.925Z,996.71
2022-07-29T04:56:40.913Z,996.73
2022-07-29T04:57:40.883Z,996.79
2022-07-29T04:58:40.873Z,996.82
2022-07-29T04:59:40.862Z,996.81
2022-07-29T05:00:40.851Z,996.77
2022-07-29T05:01:40.903Z,996.73
2022-07-29T05:02:40.910Z,996.72
2022-07-29T05:03:40.817Z,996.75
2022-07-29T05:04:40.814Z,996.78
2022-07-29T05:05:40.824Z,996.81
2022-07-29T05:06:40.797Z,996.73
2022-07-29T05:07:40.814Z,996.71
2022-07-29T05:08:42.070Z,996.76
2022-07-29T05:09:40.752Z,996.78
2022-07-29T05:10:40.757Z,996.83
2022-07-29T05:11:40.727Z,996.77
2022-07-29T05:12:40.714Z,996.80
2022-07-29T05:13:45.375Z,996.85
2022-07-29T05:14:41.702Z,996.81
2022-07-29T05:15:40.730Z,996.78
2022-07-29T05:16:40.673Z,996.79
2022-07-29T05:17:40.662Z,996.84
2022-07-29T05:18:40.656Z,996.75
2022-07-29T05:19:40.665Z,996.75
2022-07-29T05:20:40.637Z,996.79
2022-07-29T05:21:40.614Z,996.78
2022-07-29T05:22:40.604Z,996.77
2022-07-29T05:23:40.603Z,996.76
2022-07-29T05:24:40.584Z,996.76
2022-07-29T05:25:42.971Z,996.77
2022-07-29T05:26:40.565Z,996.84
2022-07-29T05:27:40.549Z,996.79
2022-07-29T05:28:40.544Z,996.84
2022-07-29T05:29:44.268Z,996.82
2022-07-29T05:30:41.582Z,996.77
2022-07-29T05:31:40.506Z,996.81
2022-07-29T05:32:40.495Z,996.79
2022-07-29T05:33:40.485Z,996.81
2022-07-29T05:34:50.689Z,996.83
2022-07-29T05:35:41.476Z,996.82
2022-07-29T05:36:40.487Z,996.90
2022-07-29T05:37:40.464Z,996.77
2022-07-29T05:38:40.426Z,996.85
2022-07-29T05:39:48.514Z,996.81
2022-07-29T05:40:41.434Z,996.86
2022-07-29T05:41:40.394Z,996.84
2022-07-29T05:42:40.408Z,996.90
2022-07-29T05:43:40.376Z,996.96
2022-07-29T05:44:40.362Z,996.92
2022-07-29T05:45:49.725Z,996.93
2022-07-29T05:46:41.377Z,996.93
2022-07-29T05:47:40.325Z,996.96
2022-07-29T05:48:40.392Z,996.95
2022-07-29T05:49:40.300Z,996.94
2022-07-29T05:50:44.049Z,996.97
2022-07-29T05:51:40.275Z,996.93
2022-07-29T05:52:40.267Z,996.99
2022-07-29T05:53:40.276Z,997.00
2022-07-29T05:54:40.247Z,997.01
2022-07-29T05:55:40.263Z,997.02
2022-07-29T05:56:40.225Z,996.98
2022-07-29T05:57:40.207Z,997.01
2022-07-29T05:58:40.197Z,997.01
2022-07-29T05:59:40.209Z,997.10
2022-07-29T06:00:40.177Z,997.15
2022-07-29T06:01:40.251Z,997.11
2022-07-29T06:02:40.158Z,997.10
2022-07-29T06:03:40.149Z,997.11
2022-07-29T06:04:40.173Z,997.22
2022-07-29T06:05:40.146Z,997.20
2022-07-29T06:06:40.112Z,997.14
2022-07-29T06:07:40.098Z,997.18
2022-07-29T06:08:41.088Z,997.10
2022-07-29T06:09:40.088Z,997.20
2022-07-29T06:10:40.061Z,997.20
2022-07-29T06:11:40.070Z,997.15
2022-07-29T06:12:40.056Z,997.22
2022-07-29T06:13:40.039Z,997.14
2022-07-29T06:14:40.027Z,997.10
2022-07-29T06:15:40.069Z,997.08
2022-07-29T06:16:40.079Z,997.18
2022-07-29T06:17:39.987Z,997.20
2022-07-29T06:18:40.978Z,997.26
2022-07-29T06:19:39.970Z,997.19
2022-07-29T06:20:39.960Z,997.21
2022-07-29T06:21:42.195Z,997.19
2022-07-29T06:22:39.968Z,997.19
2022-07-29T06:23:39.940Z,997.23
2022-07-29T06:24:39.921Z,997.17
2022-07-29T06:25:39.905Z,997.16
2022-07-29T06:26:40.119Z,997.06
2022-07-29T06:27:39.923Z,997.10
2022-07-29T06:28:39.887Z,997.10
2022-07-29T06:29:39.872Z,997.14
2022-07-29T06:30:39.878Z,997.11
2022-07-29T06:31:39.842Z,997.10
2022-07-29T06:32:43.074Z,997.17
2022-07-29T06:33:39.872Z,997.12
2022-07-29T06:34:39.813Z,997.12
2022-07-29T06:35:41.992Z,997.09
2022-07-29T06:36:40.371Z,997.19
2022-07-29T06:37:39.834Z,997.04
2022-07-29T06:38:42.876Z,997.12
2022-07-29T06:39:40.763Z,997.07
2022-07-29T06:40:39.732Z,997.12
2022-07-29T06:41:39.751Z,997.12
2022-07-29T06:42:39.714Z,997.13
2022-07-29T06:43:52.181Z,997.20
2022-07-29T06:44:40.715Z,997.20
2022-07-29T06:45:39.718Z,997.24
2022-07-29T06:46:39.725Z,997.20
2022-07-29T06:47:39.656Z,997.17
2022-07-29T06:48:39.701Z,997.21
2022-07-29T06:49:39.635Z,997.18
2022-07-29T06:50:39.636Z,997.25
2022-07-29T06:51:39.618Z,997.22
2022-07-29T06:52:39.601Z,997.33
2022-07-29T06:53:39.587Z,997.30
2022-07-29T06:54:40.577Z,997.33
2022-07-29T06:55:39.616Z,997.24
2022-07-29T06:56:40.217Z,997.33
2022-07-29T06:57:39.538Z,997.32
2022-07-29T06:58:39.530Z,997.33
2022-07-29T06:59:39.517Z,997.29
2022-07-29T07:00:39.509Z,997.40
2022-07-29T07:01:39.630Z,997.40
2022-07-29T07:02:39.572Z,997.39
2022-07-29T07:03:39.472Z,997.40
2022-07-29T07:04:39.490Z,997.41
2022-07-29T07:05:39.457Z,997.40
2022-07-29T07:06:39.480Z,997.38
2022-07-29T07:07:39.447Z,997.48
2022-07-29T07:08:39.435Z,997.43
2022-07-29T07:09:40.613Z,997.45
2022-07-29T07:10:39.403Z,997.47
2022-07-29T07:11:39.394Z,997.44
2022-07-29T07:12:39.415Z,997.45
2022-07-29T07:13:39.372Z,997.47
2022-07-29T07:14:39.369Z,997.49
2022-07-29T07:15:40.128Z,997.45
2022-07-29T07:16:39.368Z,997.44
2022-07-29T07:17:39.323Z,997.57
2022-07-29T07:18:39.346Z,997.53
2022-07-29T07:19:39.311Z,997.51
2022-07-29T07:20:39.304Z,997.57
2022-07-29T07:21:39.297Z,997.58
2022-07-29T07:22:39.295Z,997.59
2022-07-29T07:23:39.272Z,997.63
2022-07-29T07:24:39.276Z,997.59
2022-07-29T07:25:39.259Z,997.67
2022-07-29T07:26:39.236Z,997.62
2022-07-29T07:27:39.226Z,997.70
2022-07-29T07:28:39.217Z,997.64
2022-07-29T07:29:39.198Z,997.70
2022-07-29T07:30:39.217Z,997.68
2022-07-29T07:31:39.255Z,997.70
2022-07-29T07:32:39.176Z,997.71
2022-07-29T07:33:39.165Z,997.70
2022-07-29T07:34:39.187Z,997.70
2022-07-29T07:35:39.145Z,997.68
2022-07-29T07:36:39.159Z,997.66
2022-07-29T07:37:39.145Z,997.70
2022-07-29T07:38:39.124Z,997.71
2022-07-29T07:39:39.110Z,997.70
2022-07-29T07:40:39.090Z,997.69
2022-07-29T07:41:39.115Z,997.74
2022-07-29T07:42:39.084Z,997.74
2022-07-29T07:43:39.076Z,997.67
2022-07-29T07:44:57.189Z,997.67
2022-07-29T07:45:40.086Z,997.71
2022-07-29T07:46:39.031Z,997.66
2022-07-29T07:47:39.052Z,997.66
2022-07-29T07:48:39.068Z,997.66
2022-07-29T07:49:39.002Z,997.63
2022-07-29T07:50:38.992Z,997.59
2022-07-29T07:51:38.984Z,997.63
2022-07-29T07:52:38.963Z,997.55
2022-07-29T07:53:38.974Z,997.54
2022-07-29T07:54:38.945Z,997.51
2022-07-29T07:56:08.211Z,997.62
2022-07-29T07:56:39.926Z,997.57
2022-07-29T07:57:38.919Z,997.66
2022-07-29T07:58:38.914Z,997.66
2022-07-29T07:59:38.925Z,997.73
2022-07-29T08:00:38.887Z,997.72
2022-07-29T08:01:55.764Z,997.67
2022-07-29T08:02:39.917Z,997.66
2022-07-29T08:03:38.858Z,997.72
2022-07-29T08:04:38.838Z,997.70
2022-07-29T08:05:39.428Z,997.65
2022-07-29T08:06:38.820Z,997.72
2022-07-29T08:07:38.816Z,997.74
2022-07-29T08:08:38.799Z,997.69
2022-07-29T08:09:38.787Z,997.72
2022-07-29T08:10:38.784Z,997.74
2022-07-29T08:11:38.786Z,997.67
2022-07-29T08:12:39.759Z,997.57
2022-07-29T08:13:38.903Z,997.74
2022-07-29T08:14:38.739Z,997.74
2022-07-29T08:15:38.745Z,997.78
2022-07-29T08:16:38.801Z,997.72
2022-07-29T08:17:38.713Z,997.78
2022-07-29T08:18:38.693Z,997.85
2022-07-29T08:19:38.684Z,997.63
2022-07-29T08:20:38.675Z,997.84
2022-07-29T08:21:38.662Z,997.72
2022-07-29T08:22:38.676Z,997.66
2022-07-29T08:23:46.880Z,997.83
2022-07-29T08:24:39.633Z,997.78
2022-07-29T08:25:38.750Z,997.82
2022-07-29T08:26:38.617Z,997.81
2022-07-29T08:27:43.752Z,997.81
2022-07-29T08:28:39.624Z,997.81
2022-07-29T08:29:38.575Z,997.86
2022-07-29T08:30:38.574Z,997.85
2022-07-29T08:31:38.625Z,997.88
2022-07-29T08:32:53.222Z,997.78
2022-07-29T08:33:39.538Z,997.79
2022-07-29T08:34:38.556Z,997.82
2022-07-29T08:35:38.526Z,997.61
2022-07-29T08:36:38.508Z,997.58
2022-07-29T08:37:38.504Z,997.48
2022-07-29T08:38:38.508Z,997.65
2022-07-29T08:39:38.507Z,997.62
2022-07-29T08:40:38.471Z,997.67
2022-07-29T08:41:38.485Z,997.69
2022-07-29T08:42:38.449Z,997.70
2022-07-29T08:43:38.583Z,997.75
2022-07-29T08:44:38.457Z,997.88
2022-07-29T08:45:38.537Z,997.67
2022-07-29T08:46:39.422Z,997.75
2022-07-29T08:47:38.401Z,997.66
2022-07-29T08:48:38.488Z,997.63
2022-07-29T08:49:38.379Z,997.58
2022-07-29T08:50:38.370Z,997.57
2022-07-29T08:51:48.566Z,997.62
2022-07-29T08:53:49.888Z,997.57
2022-07-29T08:54:50.860Z,997.52
2022-07-29T08:55:48.232Z,997.60
2022-07-29T08:56:48.230Z,997.49
2022-07-29T08:57:51.940Z,997.60
2022-07-29T08:58:51.903Z,997.57
2022-07-29T08:59:48.178Z,997.49
2022-07-29T09:00:48.634Z,997.56
2022-07-29T09:01:48.208Z,997.69
2022-07-29T09:02:48.169Z,997.71
2022-07-29T09:03:48.204Z,997.78
2022-07-29T09:04:48.132Z,997.80
2022-07-29T09:05:48.357Z,997.88
2022-07-29T09:06:48.103Z,997.69
2022-07-29T09:07:48.102Z,997.68
2022-07-29T09:08:48.103Z,997.82
2022-07-29T09:09:48.074Z,997.87
2022-07-29T09:10:48.078Z,997.84
2022-07-29T09:11:48.062Z,997.89
2022-07-29T09:12:48.065Z,997.91
2022-07-29T09:13:48.065Z,997.97
2022-07-29T09:14:48.041Z,997.95
2022-07-29T09:15:48.016Z,997.99
2022-07-29T09:17:00.850Z,997.90
2022-07-29T09:17:48.996Z,997.98
2022-07-29T09:18:47.995Z,997.97
2022-07-29T09:19:47.996Z,998.00
2022-07-29T09:20:47.978Z,997.99
2022-07-29T09:21:47.962Z,998.00
2022-07-29T09:22:47.960Z,998.01
2022-07-29T09:23:47.968Z,997.96
2022-07-29T09:24:47.948Z,997.91
2022-07-29T09:25:47.938Z,997.91
2022-07-29T09:26:48.619Z,997.88
2022-07-29T09:27:47.899Z,997.89
2022-07-29T09:28:47.898Z,997.86
2022-07-29T09:29:47.880Z,997.82
2022-07-29T09:30:47.949Z,997.81
2022-07-29T09:31:47.925Z,997.82
2022-07-29T09:32:47.870Z,997.78
2022-07-29T09:33:47.841Z,997.83
2022-07-29T09:34:47.831Z,997.90
2022-07-29T09:35:57.064Z,997.85
2022-07-29T09:36:48.841Z,997.87
2022-07-29T09:37:47.806Z,997.83
2022-07-29T09:38:47.803Z,997.84
2022-07-29T09:39:47.785Z,997.79
2022-07-29T09:40:47.772Z,997.84
2022-07-29T09:41:47.764Z,997.72
2022-07-29T09:42:47.787Z,997.70
2022-07-29T09:43:47.745Z,997.58
2022-07-29T09:44:47.744Z,997.47
2022-07-29T09:45:47.724Z,997.44
2022-07-29T09:46:47.762Z,997.31
2022-07-29T09:47:47.707Z,997.38
2022-07-29T09:48:47.816Z,997.33
2022-07-29T09:49:47.686Z,997.31
2022-07-29T09:50:47.677Z,997.31
2022-07-29T09:51:47.671Z,997.33
2022-07-29T09:52:47.665Z,997.40
2022-07-29T09:53:47.696Z,997.44
2022-07-29T09:54:47.637Z,997.37
2022-07-29T09:55:47.627Z,997.22
2022-07-29T09:56:47.619Z,997.21
2022-07-29T09:57:47.609Z,997.17
2022-07-29T09:58:47.599Z,997.18
2022-07-29T09:59:50.272Z,997.14
2022-07-29T10:00:47.640Z,997.20
2022-07-29T10:01:47.570Z,997.15
2022-07-29T10:02:51.327Z,997.19
2022-07-29T10:03:48.355Z,997.18
2022-07-29T10:04:47.530Z,997.11
2022-07-29T10:05:47.542Z,997.09
2022-07-29T10:06:47.510Z,997.11
2022-07-29T10:07:50.585Z,997.08
2022-07-29T10:08:48.492Z,997.09
2022-07-29T10:09:47.483Z,997.10
2022-07-29T10:10:47.472Z,997.03
2022-07-29T10:11:49.735Z,997.05
2022-07-29T10:12:47.442Z,997.12
2022-07-29T10:13:47.436Z,997.06
2022-07-29T10:14:47.433Z,997.05
2022-07-29T10:15:47.519Z,997.03
2022-07-29T10:16:47.478Z,997.06
2022-07-29T10:17:47.426Z,997.09
2022-07-29T10:18:47.396Z,997.08
2022-07-29T10:19:47.376Z,996.99
2022-07-29T10:20:47.365Z,997.00
2022-07-29T10:21:47.597Z,996.98
2022-07-29T10:22:53.332Z,997.02
2022-07-29T10:23:48.356Z,996.94
2022-07-29T10:24:47.334Z,997.09
2022-07-29T10:25:47.306Z,997.04
2022-07-29T10:26:47.296Z,996.95
2022-07-29T10:27:47.287Z,996.99
2022-07-29T10:28:47.277Z,997.00
2022-07-29T10:29:47.296Z,997.03
2022-07-29T10:30:47.498Z,996.95
2022-07-29T10:31:47.500Z,996.96
2022-07-29T10:32:51.162Z,997.01
2022-07-29T10:33:48.218Z,997.00
2022-07-29T10:34:47.221Z,996.98
2022-07-29T10:35:47.217Z,997.07
2022-07-29T10:36:47.196Z,996.99
2022-07-29T10:37:47.180Z,996.98
2022-07-29T10:38:48.011Z,996.98
2022-07-29T10:39:48.963Z,996.99
2022-07-29T10:40:47.169Z,996.99
2022-07-29T10:41:47.137Z,997.02
2022-07-29T10:42:50.802Z,996.96
2022-07-29T10:43:47.117Z,996.88
2022-07-29T10:44:47.113Z,996.93
2022-07-29T10:45:47.091Z,996.92
2022-07-29T10:46:47.170Z,996.87
2022-07-29T10:47:47.080Z,996.88
2022-07-29T10:48:47.120Z,996.84
2022-07-29T10:49:47.050Z,996.84
2022-07-29T10:50:47.041Z,996.78
2022-07-29T10:51:47.053Z,996.78
2022-07-29T10:52:47.013Z,996.84
2022-07-29T10:53:47.004Z,996.76
2022-07-29T10:54:46.993Z,996.76
2022-07-29T10:55:47.820Z,996.83
2022-07-29T10:56:46.977Z,996.78
2022-07-29T10:57:54.601Z,996.75
2022-07-29T10:58:52.759Z,996.79
2022-07-29T10:59:47.941Z,996.81
2022-07-29T11:00:46.935Z,996.78
2022-07-29T11:01:50.278Z,996.77
2022-07-29T11:02:48.321Z,996.72
2022-07-29T11:03:49.676Z,996.72
2022-07-29T11:04:47.038Z,996.75
2022-07-29T11:05:46.875Z,996.73
2022-07-29T11:06:48.106Z,996.70
2022-07-29T11:07:46.856Z,996.71
2022-07-29T11:08:46.960Z,996.73
2022-07-29T11:09:46.835Z,996.76
2022-07-29T11:10:50.416Z,996.73
2022-07-29T11:11:51.645Z,996.69
2022-07-29T11:12:47.805Z,996.73
2022-07-29T11:13:46.795Z,996.73
2022-07-29T11:14:46.815Z,996.71
2022-07-29T11:15:47.536Z,996.69
2022-07-29T11:16:46.768Z,996.67
2022-07-29T11:17:52.165Z,996.72
2022-07-29T11:18:47.738Z,996.71
2022-07-29T11:19:52.047Z,996.65
2022-07-29T11:20:51.570Z,996.63
2022-07-29T11:21:51.697Z,996.72
2022-07-29T11:22:47.700Z,996.66
2022-07-29T11:23:46.684Z,996.67
2022-07-29T11:24:50.330Z,996.65
2022-07-29T11:25:50.633Z,996.62
2022-07-29T11:26:47.670Z,996.69
2022-07-29T11:27:46.650Z,996.71
2022-07-29T11:28:46.631Z,996.66
2022-07-29T11:29:46.672Z,996.70
2022-07-29T11:30:46.612Z,996.69
2022-07-29T11:31:46.653Z,996.62
2022-07-29T11:32:48.719Z,996.61
2022-07-29T11:33:56.211Z,996.60
2022-07-29T11:34:47.563Z,996.62
2022-07-29T11:35:46.554Z,996.65
2022-07-29T11:36:47.563Z,996.73
2022-07-29T11:37:52.668Z,996.72
2022-07-29T11:38:47.522Z,996.70
2022-07-29T11:39:46.503Z,996.71
2022-07-29T11:40:46.540Z,996.61
2022-07-29T11:41:46.484Z,996.68
2022-07-29T11:42:46.504Z,996.66
2022-07-29T11:43:46.464Z,996.60
2022-07-29T11:44:46.456Z,996.66
2022-07-29T11:45:46.443Z,996.64
2022-07-29T11:46:46.438Z,996.67
2022-07-29T11:47:46.467Z,996.60
2022-07-29T11:48:46.501Z,996.63
2022-07-29T11:49:47.406Z,996.57
2022-07-29T11:50:46.396Z,996.58
2022-07-29T11:51:48.635Z,996.53
2022-07-29T11:52:49.978Z,996.52
2022-07-29T11:53:46.606Z,996.49
2022-07-29T11:54:57.374Z,996.51
2022-07-29T11:55:51.095Z,996.44
2022-07-29T11:56:46.327Z,996.40
2022-07-29T11:57:46.314Z,996.47
2022-07-29T11:58:47.327Z,996.45
2022-07-29T11:59:46.289Z,996.45
2022-07-29T12:00:46.407Z,996.40
2022-07-29T12:01:46.269Z,996.37
2022-07-29T12:02:48.658Z,996.39
2022-07-29T12:03:46.307Z,996.31
2022-07-29T12:04:46.259Z,996.31
2022-07-29T12:05:47.909Z,996.34
2022-07-29T12:06:46.219Z,996.30
2022-07-29T12:07:47.296Z,996.32
2022-07-29T12:08:46.194Z,996.33
2022-07-29T12:09:46.212Z,996.32
2022-07-29T12:10:46.172Z,996.40
2022-07-29T12:11:47.500Z,996.33
2022-07-29T12:12:46.156Z,996.36
2022-07-29T12:13:46.143Z,996.28
2022-07-29T12:14:46.134Z,996.35
2022-07-29T12:15:47.352Z,996.35
2022-07-29T12:16:46.196Z,996.33
2022-07-29T12:17:46.123Z,996.28
2022-07-29T12:18:46.086Z,996.28
2022-07-29T12:19:46.078Z,996.27
2022-07-29T12:20:46.084Z,996.24
2022-07-29T12:21:56.181Z,996.27
2022-07-29T12:22:47.035Z,996.25
2022-07-29T12:23:46.036Z,996.16
2022-07-29T12:24:46.025Z,996.16
2022-07-29T12:25:49.690Z,996.14
2022-07-29T12:26:46.028Z,996.13
2022-07-29T12:27:45.985Z,996.20
2022-07-29T12:28:47.155Z,996.19
2022-07-29T12:29:48.025Z,996.21